Time;durP1;ratioP1;P1;durP2;ratioP2;P2;SDS_P1;SDS_P2;PMS_P1;PMS_P2;Temp;Humidity;BMP_temperature;BMP_pressure;BME280_temperature;BME280_humidity;BME280_pressure;Samples;Min_cycle;Max_cycle;Signal;HPM_P1;HPM_P2
2022/10/08 00:01:12;;;;;;;8.77;5.00;;;;;;;16.04;52.98;102020.06;5066610;28;20781;-65
2022/10/08 00:03:42;;;;;;;8.70;5.20;;;;;;;16.00;52.94;102016.06;5066893;28;20459;-65
2022/10/08 00:06:19;;;;;;;11.57;8.10;;;;;;;16.04;53.04;102012.03;5066291;28;20400;-66
2022/10/08 00:10:31;;;;;;;13.65;9.85;;;;;;;16.02;53.10;102006.03;5081342;27;2027927;-65
2022/10/08 00:12:58;;;;;;;18.27;10.90;;;;;;;15.99;52.84;102001.00;5127329;28;20403;-64
2022/10/08 00:15:23;;;;;;;14.55;10.18;;;;;;;15.92;52.97;101998.22;5127020;28;20375;-65
2022/10/08 00:18:51;;;;;;;11.90;8.55;;;;;;;15.85;52.88;101992.72;5093824;27;20828;-65
2022/10/08 00:21:22;;;;;;;13.75;9.27;;;;;;;15.84;52.70;101990.22;5066337;28;20439;-64
2022/10/08 00:24:26;;;;;;;14.07;8.48;;;;;;;15.84;52.87;101988.38;5086168;27;20426;-65
2022/10/08 00:26:52;;;;;;;14.95;7.93;;;;;;;15.83;52.96;101981.38;5052027;28;20405;-64
2022/10/08 00:29:21;;;;;;;11.57;7.93;;;;;;;15.88;52.63;101980.00;5066027;28;20380;-64
2022/10/08 00:32:58;;;;;;;8.95;5.90;;;;;;;15.83;52.49;101975.19;5085702;27;20412;-64
2022/10/08 00:35:23;;;;;;;9.90;5.97;;;;;;;15.80;52.48;101965.66;5052262;28;20467;-66
2022/10/08 00:37:49;;;;;;;5.50;4.87;;;;;;;15.79;52.38;101971.19;5058659;28;20390;-66
2022/10/08 00:41:37;;;;;;;8.10;5.30;;;;;;;15.74;52.33;101971.72;5095057;27;20425;-64
2022/10/08 00:44:41;;;;;;;7.93;5.18;;;;;;;15.70;52.46;101970.38;5069418;28;20878;-65
2022/10/08 00:47:37;;;;;;;10.25;6.30;;;;;;;15.72;52.44;101960.34;5057205;28;20376;-64
2022/10/08 00:50:48;;;;;;;9.77;6.35;;;;;;;15.70;52.37;101962.38;5093229;27;20406;-64
2022/10/08 00:53:14;;;;;;;10.77;5.68;;;;;;;15.71;52.62;101963.19;5072617;28;20398;-64
2022/10/08 00:55:40;;;;;;;10.10;5.73;;;;;;;15.71;52.41;101957.84;5075966;28;20388;-64
2022/10/08 00:58:18;;;;;;;11.07;6.30;;;;;;;15.70;52.62;101954.34;5083886;28;20896;-66
2022/10/08 01:00:43;;;;;;;9.57;6.45;;;;;;;15.68;52.55;101948.31;5076088;28;20471;-64
2022/10/08 01:03:09;;;;;;;9.40;6.97;;;;;;;15.65;52.58;101951.34;5065135;28;20466;-65
2022/10/08 01:06:45;;;;;;;9.30;6.22;;;;;;;15.56;52.61;101949.72;5075825;27;20487;-65
2022/10/08 01:09:13;;;;;;;9.13;6.30;;;;;;;15.54;52.43;101955.22;5076775;28;20453;-65
2022/10/08 01:11:59;;;;;;;9.23;6.43;;;;;;;15.56;52.82;101952.41;5066884;28;20878;-65
2022/10/08 01:14:38;;;;;;;8.13;6.28;;;;;;;15.52;52.86;101946.56;5078152;28;20386;-65
2022/10/08 01:17:47;;;;;;;9.57;5.75;;;;;;;15.42;53.04;101940.56;5095561;27;20413;-65
2022/10/08 01:23:40;;;;;;;13.82;6.18;;;;;;;15.38;53.30;101936.59;5073492;27;20465;-65
2022/10/08 01:27:05;;;;;;;6.60;5.32;;;;;;;15.38;53.40;101932.06;5080158;27;20400;-65
2022/10/08 01:29:41;;;;;;;7.95;5.80;;;;;;;15.37;53.24;101929.56;5066621;28;20497;-64
2022/10/08 01:32:12;;;;;;;7.90;5.53;;;;;;;15.37;53.24;101926.88;5066513;28;20407;-64
2022/10/08 01:37:26;;;;;;;8.95;5.65;;;;;;;15.31;53.43;101930.25;5073430;27;20414;-66
2022/10/08 01:39:55;;;;;;;6.65;5.72;;;;;;;15.30;53.32;101934.75;5086938;28;20401;-65
2022/10/08 01:42:45;;;;;;;8.30;5.72;;;;;;;15.25;53.73;101937.09;5090646;27;20834;-65
2022/10/08 01:45:15;;;;;;;8.27;5.97;;;;;;;15.19;53.84;101945.81;5066505;28;20790;-64
2022/10/08 01:49:48;;;;;;;10.27;5.75;;;;;;;15.01;54.39;101938.00;5090164;27;20789;-66
2022/10/08 01:52:24;;;;;;;8.32;5.13;;;;;;;15.05;54.13;101937.50;5066542;28;20449;-65
2022/10/08 01:56:13;;;;;;;7.63;5.50;;;;;;;15.09;54.02;101944.16;5094481;27;20408;-66
2022/10/08 01:58:54;;;;;;;7.95;5.70;;;;;;;15.13;53.87;101943.81;5054450;28;20440;-64
2022/10/08 02:01:35;;;;;;;6.43;5.60;;;;;;;15.08;53.82;101945.16;5046604;28;20895;-64
2022/10/08 02:04:56;;;;;;;9.15;5.57;;;;;;;15.06;54.18;101935.66;5049656;28;20407;-65
2022/10/08 02:07:30;;;;;;;9.68;5.53;;;;;;;15.04;53.96;101935.81;5027077;28;20462;-65
2022/10/08 02:10:07;;;;;;;7.90;5.53;;;;;;;15.03;53.96;101935.97;5027011;28;20479;-65
2022/10/08 02:12:33;;;;;;;8.75;5.53;;;;;;;15.04;53.86;101937.66;5026667;28;20409;-66
2022/10/08 02:15:01;;;;;;;10.68;5.32;;;;;;;15.00;53.82;101934.50;5026560;28;20478;-66
2022/10/08 02:17:34;;;;;;;7.93;5.43;;;;;;;14.98;53.92;101940.97;5026819;28;20399;-65
2022/10/08 02:20:50;;;;;;;9.13;5.47;;;;;;;14.91;53.85;101940.84;5095928;27;20434;-65
2022/10/08 02:23:18;;;;;;;7.15;5.50;;;;;;;14.91;53.99;101938.19;5086483;28;20838;-65
2022/10/08 02:28:05;;;;;;;7.80;5.55;;;;;;;14.81;54.23;101938.34;5094419;27;20402;-65
2022/10/08 02:35:24;;;;;;;7.50;5.70;;;;;;;14.64;54.46;101947.34;5093844;27;20407;-65
2022/10/08 02:38:05;;;;;;;7.95;5.70;;;;;;;14.64;54.31;101942.84;5066610;28;20433;-64
2022/10/08 02:40:35;;;;;;;10.38;5.70;;;;;;;14.65;54.22;101952.50;5066772;28;20514;-65
2022/10/08 02:43:06;;;;;;;8.32;5.72;;;;;;;14.62;54.27;101949.34;5066444;28;20406;-66
2022/10/08 02:45:41;;;;;;;11.38;5.40;;;;;;;14.62;54.04;101946.66;5066668;28;20391;-65
2022/10/08 02:51:53;;;;;;;8.40;5.35;;;;;;;14.53;53.82;101952.00;5042521;28;20411;-64
2022/10/08 02:54:21;;;;;;;7.22;5.20;;;;;;;14.50;53.80;101948.81;5026659;28;20904;-64
2022/10/08 02:58:11;;;;;;;7.55;5.47;;;;;;;14.45;53.79;101954.63;5077065;27;20415;-64
2022/10/08 03:00:43;;;;;;;8.80;5.67;;;;;;;14.45;54.00;101961.81;5059995;28;20405;-64
2022/10/08 03:03:17;;;;;;;7.70;5.28;;;;;;;14.40;53.83;101964.13;5058698;28;20414;-68
2022/10/08 03:05:43;;;;;;;8.45;5.47;;;;;;;14.39;54.18;101963.31;5065659;28;20392;-64
2022/10/08 03:08:13;;;;;;;8.57;5.45;;;;;;;14.33;54.17;101958.63;5066238;28;20391;-64
2022/10/08 03:10:40;;;;;;;9.63;5.40;;;;;;;14.31;54.19;101964.16;5068405;28;20395;-64
2022/10/08 03:13:08;;;;;;;11.25;5.90;;;;;;;14.28;54.20;101958.31;5067417;28;20372;-64
2022/10/08 03:15:52;;;;;;;9.68;5.70;;;;;;;14.27;54.43;101956.63;5037034;28;20820;-63
2022/10/08 03:18:19;;;;;;;10.15;6.05;;;;;;;14.24;54.44;101959.59;5026883;28;20460;-65
2022/10/08 03:22:49;;;;;;;7.90;5.88;;;;;;;14.26;54.31;101957.59;5088283;27;20412;-66
2022/10/08 03:25:14;;;;;;;8.70;6.03;;;;;;;14.24;54.45;101955.13;5066807;28;20415;-64
2022/10/08 03:27:40;;;;;;;8.00;5.70;;;;;;;14.27;54.66;101959.28;5066595;28;20777;-66
2022/10/08 03:30:06;;;;;;;7.85;6.00;;;;;;;14.27;54.44;101968.13;5055458;28;20454;-65
2022/10/08 03:35:12;;;;;;;9.25;6.10;;;;;;;14.25;54.46;101958.63;5049466;28;20907;-66
2022/10/08 03:37:38;;;;;;;8.90;6.32;;;;;;;14.23;54.54;101958.78;5046618;28;20401;-65
2022/10/08 03:40:04;;;;;;;11.65;6.80;;;;;;;14.20;54.54;101948.44;5044348;28;20409;-65
2022/10/08 03:42:30;;;;;;;9.13;6.10;;;;;;;14.20;54.89;101950.28;5035020;28;20413;-65
2022/10/08 03:44:55;;;;;;;9.00;6.30;;;;;;;14.19;54.73;101946.78;5046220;28;20381;-64
2022/10/08 03:49:21;;;;;;;8.05;6.20;;;;;;;14.21;54.90;101952.78;5085648;27;20410;-65
2022/10/08 03:52:14;;;;;;;12.23;6.72;;;;;;;14.17;55.05;101955.91;5087257;27;20406;-65
2022/10/08 03:59:12;;;;;;;7.85;5.80;;;;;;;14.10;54.63;101947.75;5085017;27;20406;-65
2022/10/08 04:01:38;;;;;;;9.10;5.75;;;;;;;14.04;54.61;101941.22;5086931;28;20451;-65
2022/10/08 04:04:03;;;;;;;8.73;6.30;;;;;;;14.05;54.80;101940.25;5085597;28;20382;-65
2022/10/08 04:06:29;;;;;;;11.95;6.25;;;;;;;14.04;54.79;101948.41;5084927;28;21902;-65
2022/10/08 04:11:39;;;;;;;8.77;6.10;;;;;;;14.06;54.54;101943.72;5084034;27;20410;-64
2022/10/08 04:14:05;;;;;;;10.43;6.35;;;;;;;14.03;54.41;101936.06;5080845;28;20459;-66
2022/10/08 04:16:30;;;;;;;8.43;6.20;;;;;;;14.03;54.29;101938.75;5081966;28;20437;-66
2022/10/08 04:18:56;;;;;;;9.50;6.73;;;;;;;14.01;54.23;101943.38;5085387;28;20382;-65
2022/10/08 04:21:21;;;;;;;9.77;6.87;;;;;;;13.95;54.36;101935.06;5085114;28;20382;-67
2022/10/08 04:23:48;;;;;;;13.95;7.50;;;;;;;13.71;54.94;101937.63;5084765;28;20413;-66
2022/10/08 04:26:15;;;;;;;9.77;6.40;;;;;;;13.70;55.14;101936.81;5083589;28;20422;-65
2022/10/08 04:28:46;;;;;;;13.02;6.85;;;;;;;13.71;55.00;101937.63;5088261;28;20423;-66
2022/10/08 04:31:17;;;;;;;11.20;7.80;;;;;;;13.78;55.17;101938.66;5085211;28;20406;-65
2022/10/08 04:33:44;;;;;;;13.10;6.80;;;;;;;13.76;54.84;101938.00;5085645;28;20393;-66
2022/10/08 04:36:15;;;;;;;10.80;6.90;;;;;;;13.69;55.13;101944.94;5086342;28;20391;-66
2022/10/08 04:38:42;;;;;;;20.45;7.28;;;;;;;13.67;55.17;101941.63;5085352;28;20390;-66
2022/10/08 04:41:12;;;;;;;11.70;8.38;;;;;;;13.68;55.07;101933.44;5079586;28;20797;-65
2022/10/08 04:43:40;;;;;;;12.82;7.90;;;;;;;13.74;54.75;101935.47;5085875;28;20394;-66
2022/10/08 04:46:07;;;;;;;11.15;8.05;;;;;;;13.77;54.61;101931.66;5079202;28;20441;-67
2022/10/08 04:48:33;;;;;;;12.03;7.30;;;;;;;13.87;54.39;101934.19;5079317;28;20382;-66
2022/10/08 04:51:01;;;;;;;10.40;7.27;;;;;;;13.84;54.14;101932.66;5084684;28;20407;-66
2022/10/08 04:53:28;;;;;;;14.23;6.83;;;;;;;13.96;53.87;101928.72;5085551;28;20393;-66
2022/10/08 04:55:55;;;;;;;11.35;6.70;;;;;;;14.07;53.75;101932.06;5087413;28;20405;-65
2022/10/08 04:58:22;;;;;;;18.65;9.52;;;;;;;14.22;53.51;101930.44;5084532;28;20425;-65
2022/10/08 05:00:48;;;;;;;13.20;7.90;;;;;;;14.41;53.19;101931.97;5083427;28;20406;-65
2022/10/08 05:03:14;;;;;;;12.43;6.87;;;;;;;14.58;52.34;101927.50;5080709;28;20402;-65
2022/10/08 05:05:44;;;;;;;12.97;8.10;;;;;;;14.75;51.96;101925.66;5083857;28;20390;-64
2022/10/08 05:08:10;;;;;;;14.77;7.93;;;;;;;14.93;51.60;101933.50;5085175;28;20397;-65
2022/10/08 05:10:36;;;;;;;11.73;9.17;;;;;;;15.12;51.17;101921.59;5081503;28;20430;-64
2022/10/08 05:13:01;;;;;;;15.03;11.10;;;;;;;15.30;50.80;101924.06;5085254;28;20398;-64
2022/10/08 05:15:27;;;;;;;17.45;10.07;;;;;;;15.45;50.37;101932.22;5084485;28;20398;-66
2022/10/08 05:17:52;;;;;;;21.67;10.40;;;;;;;15.56;50.17;101931.00;5084609;28;20877;-65
2022/10/08 05:20:18;;;;;;;13.15;8.95;;;;;;;15.76;49.70;101934.94;5083975;28;20390;-65
2022/10/08 05:22:43;;;;;;;13.97;8.47;;;;;;;15.92;49.28;101931.38;5072772;28;20533;-65
2022/10/08 05:25:09;;;;;;;10.60;6.97;;;;;;;16.08;48.93;101926.91;5062357;28;20967;-65
2022/10/08 05:27:34;;;;;;;13.73;6.90;;;;;;;16.28;48.38;101932.63;5070119;28;20383;-65
2022/10/08 05:30:01;;;;;;;10.90;7.43;;;;;;;16.42;48.11;101926.50;5070993;28;20792;-65
2022/10/08 05:32:27;;;;;;;12.70;7.20;;;;;;;16.60;47.67;101935.09;5071456;28;20387;-65
2022/10/08 05:34:52;;;;;;;12.90;6.50;;;;;;;16.75;47.30;101926.28;5068931;28;20931;-65
2022/10/08 05:37:18;;;;;;;9.33;6.60;;;;;;;16.82;46.76;101928.03;5070968;28;20524;-64
2022/10/08 05:39:44;;;;;;;8.53;6.07;;;;;;;16.92;46.76;101930.47;5069798;28;20398;-65
2022/10/08 05:42:10;;;;;;;12.73;6.30;;;;;;;17.07;46.27;101935.88;5071160;28;20387;-64
2022/10/08 05:44:35;;;;;;;10.27;6.38;;;;;;;17.18;45.98;101926.53;5071528;28;20837;-64
2022/10/08 05:48:03;;;;;;;11.90;6.28;;;;;;;17.34;45.53;101931.72;5092705;27;20459;-65
2022/10/08 05:50:28;;;;;;;14.10;6.53;;;;;;;17.53;45.41;101938.34;5086336;28;20398;-64
2022/10/08 05:52:54;;;;;;;9.53;6.87;;;;;;;17.83;45.07;101946.38;5086177;28;20390;-64
2022/10/08 05:55:19;;;;;;;10.53;6.80;;;;;;;18.12;44.46;101942.00;5086020;28;20765;-64
2022/10/08 05:57:45;;;;;;;11.85;6.70;;;;;;;18.27;44.17;101948.13;5085114;28;20855;-65
2022/10/08 06:00:11;;;;;;;11.43;6.33;;;;;;;18.62;43.42;101942.88;5085664;28;20408;-65
2022/10/08 06:02:36;;;;;;;11.23;6.43;;;;;;;18.87;42.94;101946.03;5085256;28;20386;-65
2022/10/08 06:05:02;;;;;;;12.80;7.05;;;;;;;19.15;42.57;101945.16;5085455;28;20396;-65
2022/10/08 06:07:27;;;;;;;11.30;7.63;;;;;;;19.43;42.03;101944.31;5085163;28;20785;-65
2022/10/08 06:09:53;;;;;;;10.27;6.47;;;;;;;19.75;41.32;101936.63;5085922;28;20394;-64
2022/10/08 06:12:18;;;;;;;10.87;6.90;;;;;;;19.88;41.01;101942.06;5083650;28;20391;-64
2022/10/08 06:14:44;;;;;;;12.80;6.43;;;;;;;19.91;40.90;101941.63;5071214;28;20441;-66
2022/10/08 06:17:10;;;;;;;12.20;6.10;;;;;;;20.23;40.67;101950.84;5082532;28;20379;-65
2022/10/08 06:19:36;;;;;;;13.80;6.30;;;;;;;20.46;40.24;101946.94;5083145;28;20404;-65
2022/10/08 06:22:03;;;;;;;8.53;6.30;;;;;;;20.74;39.94;101952.19;5086074;28;20447;-65
2022/10/08 06:24:28;;;;;;;9.23;6.33;;;;;;;20.98;39.36;101948.00;5082146;28;20412;-65
2022/10/08 06:26:54;;;;;;;13.93;6.25;;;;;;;21.14;39.08;101935.97;5078271;28;20505;-65
2022/10/08 06:29:21;;;;;;;10.53;6.93;;;;;;;21.38;38.78;101942.53;5067067;28;20392;-64
2022/10/08 06:31:47;;;;;;;9.40;6.82;;;;;;;21.59;38.69;101932.53;5079012;28;20394;-64
2022/10/08 06:34:13;;;;;;;11.73;7.32;;;;;;;21.76;38.43;101946.38;5084009;28;20390;-65
2022/10/08 06:36:39;;;;;;;10.77;6.65;;;;;;;21.82;38.43;101939.28;5085407;28;22793;-65
2022/10/08 06:39:11;;;;;;;13.43;6.90;;;;;;;22.05;38.38;101936.88;5085486;28;20426;-65
2022/10/08 06:41:36;;;;;;;11.10;6.80;;;;;;;22.20;38.35;101941.13;5065691;28;22146;-65
2022/10/08 06:44:08;;;;;;;11.10;7.07;;;;;;;22.25;38.80;101941.31;5077298;28;20468;-67
2022/10/08 06:46:34;;;;;;;10.70;7.43;;;;;;;22.37;38.31;101939.59;5067511;28;20511;-65
2022/10/08 06:49:01;;;;;;;8.95;6.93;;;;;;;22.38;38.44;101949.34;5066915;28;20388;-65
2022/10/08 06:51:27;;;;;;;12.10;7.10;;;;;;;22.29;38.25;101950.66;5067858;28;20396;-66
2022/10/08 06:53:55;;;;;;;9.85;7.10;;;;;;;22.32;38.59;101940.25;5069181;28;20895;-65
2022/10/08 06:56:22;;;;;;;11.65;7.95;;;;;;;22.50;38.49;101947.59;5070362;28;20399;-65
2022/10/08 06:58:48;;;;;;;11.13;7.40;;;;;;;22.48;38.38;101933.50;5061581;28;20392;-67
2022/10/08 07:03:25;;;;;;;15.27;7.95;;;;;;;22.31;38.98;101940.50;5075186;27;20414;-64
2022/10/08 07:05:50;;;;;;;10.43;7.67;;;;;;;22.36;38.75;101931.72;5074557;28;21261;-63
2022/10/08 07:08:16;;;;;;;13.20;7.50;;;;;;;22.24;39.07;101935.09;5069765;28;20394;-64
2022/10/08 07:10:41;;;;;;;11.20;7.40;;;;;;;22.18;39.40;101935.94;5071833;28;20475;-64
2022/10/08 07:13:27;;;;;;;9.07;7.30;;;;;;;22.00;39.70;101936.69;5075181;27;20408;-65
2022/10/08 07:16:00;;;;;;;10.32;7.60;;;;;;;21.96;39.87;101933.59;5065420;28;20449;-65
2022/10/08 07:18:25;;;;;;;12.00;7.75;;;;;;;22.11;39.93;101933.31;5056001;28;20916;-64
2022/10/08 07:20:55;;;;;;;11.77;8.47;;;;;;;22.07;39.76;101937.47;5065811;28;20380;-65
2022/10/08 07:23:20;;;;;;;11.75;8.05;;;;;;;21.97;39.75;101934.44;5063098;28;20992;-65
2022/10/08 07:25:57;;;;;;;9.82;7.70;;;;;;;21.93;40.19;101935.88;5064729;28;20399;-65
2022/10/08 07:28:24;;;;;;;14.32;8.13;;;;;;;21.96;40.47;101933.59;5066124;28;20398;-65
2022/10/08 07:30:50;;;;;;;13.85;7.80;;;;;;;21.91;40.47;101933.44;5064556;28;20400;-65
2022/10/08 07:33:16;;;;;;;12.10;8.47;;;;;;;21.98;40.46;101927.16;5064878;28;20767;-64
2022/10/08 07:35:42;;;;;;;11.20;7.35;;;;;;;22.19;40.28;101936.81;5065570;28;20415;-64
2022/10/08 07:38:07;;;;;;;12.10;8.63;;;;;;;22.14;40.50;101930.16;5064607;28;20872;-65
2022/10/08 07:40:35;;;;;;;10.97;7.83;;;;;;;22.17;40.44;101928.91;5064168;28;20388;-64
2022/10/08 07:43:02;;;;;;;9.52;8.27;;;;;;;22.01;40.59;101921.34;5061863;28;20770;-64
2022/10/08 07:45:27;;;;;;;10.25;8.05;;;;;;;21.86;40.82;101925.16;5064063;28;20399;-64
2022/10/08 07:47:53;;;;;;;16.97;10.60;;;;;;;21.75;41.15;101915.84;5064962;28;20387;-65
2022/10/08 07:50:18;;;;;;;10.40;9.00;;;;;;;21.85;41.06;101925.38;5061672;28;20380;-65
2022/10/08 07:52:44;;;;;;;13.88;9.13;;;;;;;21.92;41.31;101924.28;5062227;28;20423;-66
2022/10/08 07:55:09;;;;;;;12.97;9.33;;;;;;;22.04;41.40;101931.69;5063699;28;20384;-66
2022/10/08 07:57:35;;;;;;;13.87;9.17;;;;;;;22.09;41.58;101921.06;5063513;28;21578;-65
2022/10/08 08:00:00;;;;;;;11.32;9.02;;;;;;;22.07;41.69;101920.44;5063429;28;20388;-65
2022/10/08 08:02:26;;;;;;;13.73;9.30;;;;;;;22.15;41.77;101921.03;5063977;28;20387;-65
2022/10/08 08:04:51;;;;;;;14.75;8.90;;;;;;;22.12;42.00;101916.06;5062637;28;20754;-65
2022/10/08 08:07:17;;;;;;;12.13;9.03;;;;;;;22.23;41.67;101919.94;5063870;28;20530;-65
2022/10/08 08:09:42;;;;;;;11.33;8.73;;;;;;;22.05;41.84;101915.25;5063941;28;20407;-65
2022/10/08 08:14:15;;;;;;;10.15;9.07;;;;;;;22.01;42.16;101910.53;5046647;27;2317005;-65
2022/10/08 08:16:41;;;;;;;14.38;9.10;;;;;;;22.12;41.82;101909.81;5127412;27;20399;-64
2022/10/08 08:19:07;;;;;;;11.47;9.13;;;;;;;22.27;41.77;101914.94;5125593;28;20419;-65
2022/10/08 08:21:35;;;;;;;11.23;9.10;;;;;;;22.12;42.05;101907.13;5125201;28;20453;-65
2022/10/08 08:24:06;;;;;;;12.32;8.77;;;;;;;22.22;41.93;101906.63;5126920;28;20444;-64
2022/10/08 08:26:34;;;;;;;11.55;8.35;;;;;;;22.18;41.55;101916.22;5127164;28;20375;-65
2022/10/08 08:29:06;;;;;;;14.02;9.23;;;;;;;22.01;42.09;101914.06;5124495;28;20872;-65
2022/10/08 08:31:36;;;;;;;11.77;8.88;;;;;;;22.08;42.22;101905.91;5126073;27;20417;-65
2022/10/08 08:34:06;;;;;;;13.57;9.20;;;;;;;22.08;42.00;101903.22;5126011;28;20792;-65
2022/10/08 08:36:40;;;;;;;13.40;9.65;;;;;;;21.95;41.98;101899.56;5127225;28;20371;-65
2022/10/08 08:39:07;;;;;;;11.48;9.80;;;;;;;21.82;42.55;101906.88;5115433;28;20391;-66
2022/10/08 08:41:36;;;;;;;12.50;9.88;;;;;;;21.70;42.60;101895.97;5125641;28;20378;-65
2022/10/08 08:44:15;;;;;;;14.48;10.27;;;;;;;21.70;42.54;101891.38;5125713;28;20386;-65
2022/10/08 08:46:50;;;;;;;15.47;10.13;;;;;;;21.71;42.35;101893.03;5126539;27;20389;-66
2022/10/08 08:49:27;;;;;;;12.60;9.57;;;;;;;21.91;42.32;101886.69;5113832;28;20414;-65
2022/10/08 08:51:54;;;;;;;12.93;10.05;;;;;;;22.13;42.15;101887.19;5126697;27;20379;-65
2022/10/08 08:54:21;;;;;;;15.32;10.48;;;;;;;22.16;42.31;101875.94;5128046;27;20374;-65
2022/10/08 08:56:47;;;;;;;15.27;10.15;;;;;;;22.13;42.42;101879.09;5126593;28;20375;-67
2022/10/08 08:59:16;;;;;;;13.98;9.45;;;;;;;22.22;42.27;101871.53;5124370;28;20371;-65
2022/10/08 09:01:45;;;;;;;15.20;9.82;;;;;;;22.11;42.58;101870.34;5125946;28;20375;-65
2022/10/08 09:04:25;;;;;;;14.95;9.35;;;;;;;22.29;42.13;101867.78;5126934;27;20372;-64
2022/10/08 09:06:55;;;;;;;16.57;9.27;;;;;;;22.36;41.93;101864.19;5114638;28;20380;-65
2022/10/08 09:09:36;;;;;;;12.85;9.70;;;;;;;22.32;41.51;101866.50;5126409;27;20375;-65
2022/10/08 09:12:31;;;;;;;13.82;9.77;;;;;;;22.13;41.82;101862.88;5113856;28;20384;-64
2022/10/08 09:15:00;;;;;;;10.45;8.88;;;;;;;22.17;41.77;101857.88;5115803;27;20395;-66
2022/10/08 09:17:35;;;;;;;11.40;8.60;;;;;;;22.18;41.54;101859.50;5112937;27;20392;-65
2022/10/08 09:20:00;;;;;;;14.32;9.32;;;;;;;22.37;41.46;101857.75;5127292;27;20379;-66
2022/10/08 09:22:30;;;;;;;13.18;8.50;;;;;;;22.24;41.33;101859.47;5112954;27;20377;-66
2022/10/08 09:25:02;;;;;;;13.07;8.90;;;;;;;22.12;41.15;101850.41;5118026;27;20367;-66
2022/10/08 09:27:51;;;;;;;14.10;8.20;;;;;;;22.41;41.08;101856.25;5099371;28;20373;-66
2022/10/08 09:30:29;;;;;;;14.48;8.65;;;;;;;22.67;40.76;101844.34;5118931;27;20785;-65
2022/10/08 09:32:58;;;;;;;13.70;8.17;;;;;;;22.73;40.51;101838.06;5119614;27;20439;-66
2022/10/08 09:35:24;;;;;;;10.43;8.10;;;;;;;22.47;40.66;101837.28;5126608;27;20367;-66
2022/10/08 09:37:50;;;;;;;12.23;7.60;;;;;;;22.41;40.75;101840.03;5112531;28;20379;-66
2022/10/08 09:40:21;;;;;;;12.52;7.50;;;;;;;22.49;40.78;101829.78;5126638;27;20480;-65
2022/10/08 09:43:05;;;;;;;12.20;7.22;;;;;;;22.42;40.48;101829.00;5122865;27;20439;-65
2022/10/08 09:45:40;;;;;;;9.02;6.72;;;;;;;22.42;40.62;101826.31;5127997;27;20380;-66
2022/10/08 09:48:16;;;;;;;8.50;6.68;;;;;;;22.39;40.35;101820.53;5112326;28;20388;-65
2022/10/08 09:51:04;;;;;;;10.00;6.95;;;;;;;22.46;40.08;101821.28;5112094;28;20388;-66
2022/10/08 09:54:03;;;;;;;8.90;6.90;;;;;;;22.37;40.56;101809.94;5126985;27;20534;-65
2022/10/08 09:56:29;;;;;;;10.53;7.10;;;;;;;22.40;40.61;101803.25;5098309;27;20744;-66
2022/10/08 10:00:31;;;;;;;11.50;6.85;;;;;;;22.46;40.39;101799.69;5067271;27;20458;-64
2022/10/08 10:02:59;;;;;;;7.10;5.93;;;;;;;22.52;40.13;101806.88;5038203;28;20782;-66
2022/10/08 10:06:33;;;;;;;8.48;6.53;;;;;;;22.61;40.13;101800.13;5047243;28;20791;-65
2022/10/08 10:09:32;;;;;;;8.30;5.90;;;;;;;22.49;39.98;101794.66;5026369;28;20802;-65
2022/10/08 10:14:53;;;;;;;9.70;6.60;;;;;;;22.49;39.76;101789.25;5046613;28;20464;-65
2022/10/08 10:17:34;;;;;;;12.32;6.55;;;;;;;22.58;40.24;101789.78;5044567;28;20943;-64
2022/10/08 10:20:05;;;;;;;8.93;6.20;;;;;;;22.55;39.84;101787.53;5035806;28;20393;-65
2022/10/08 10:22:49;;;;;;;10.03;6.63;;;;;;;22.68;39.59;101770.34;5046074;28;20534;-64
2022/10/08 10:25:25;;;;;;;9.70;6.13;;;;;;;22.90;39.82;101776.09;5046546;28;20373;-64
2022/10/08 10:27:56;;;;;;;10.55;6.93;;;;;;;22.81;39.58;101769.34;5043017;28;20379;-65
2022/10/08 10:30:23;;;;;;;9.43;6.80;;;;;;;22.75;39.55;101759.47;5030278;28;20807;-66
2022/10/08 10:32:56;;;;;;;7.28;6.18;;;;;;;22.75;39.34;101760.28;5038766;28;20420;-65
2022/10/08 10:35:28;;;;;;;10.50;6.38;;;;;;;22.75;39.72;101756.75;5031981;28;20417;-64
2022/10/08 10:38:08;;;;;;;9.00;6.00;;;;;;;22.67;39.85;101745.19;5045834;28;20484;-64
2022/10/08 10:40:56;;;;;;;6.80;5.33;;;;;;;22.82;39.88;101743.97;5045257;28;20776;-65
2022/10/08 10:43:52;;;;;;;8.07;5.38;;;;;;;22.73;39.31;101740.75;5036978;28;20519;-65
2022/10/08 10:46:18;;;;;;;7.75;5.50;;;;;;;22.80;39.68;101736.09;5026091;28;20407;-64
2022/10/08 10:48:43;;;;;;;8.95;5.65;;;;;;;22.73;39.57;101731.84;5043000;28;20985;-64
2022/10/08 10:51:24;;;;;;;8.03;5.60;;;;;;;22.83;39.82;101730.25;5037340;28;20380;-64
2022/10/08 10:54:10;;;;;;;8.40;4.97;;;;;;;22.89;39.13;101725.81;5054297;28;20409;-64
2022/10/08 10:56:41;;;;;;;6.00;5.00;;;;;;;22.91;39.25;101718.28;5031523;28;20424;-66
2022/10/08 10:59:12;;;;;;;6.15;4.90;;;;;;;22.81;39.09;101718.81;5046019;28;20380;-64
2022/10/08 11:02:00;;;;;;;6.63;4.53;;;;;;;22.91;38.81;101712.88;5042689;28;20484;-64
2022/10/08 11:04:50;;;;;;;7.37;4.70;;;;;;;23.04;38.84;101706.47;5031029;28;20429;-63
2022/10/08 11:08:39;;;;;;;7.13;4.20;;;;;;;22.98;38.41;101705.50;5091882;27;20410;-64
2022/10/08 11:11:27;;;;;;;6.68;3.95;;;;;;;23.02;38.17;101695.06;5066703;28;20408;-64
2022/10/08 11:14:26;;;;;;;7.35;4.20;;;;;;;22.94;38.52;101685.38;5066465;28;20492;-64
2022/10/08 11:17:17;;;;;;;5.10;3.53;;;;;;;22.87;38.05;101687.34;5067478;28;20379;-64
2022/10/08 11:20:10;;;;;;;4.40;3.55;;;;;;;22.89;38.26;101667.13;5067723;28;20380;-64
2022/10/08 11:23:11;;;;;;;6.30;3.67;;;;;;;23.00;37.96;101668.25;5066882;28;20398;-64
2022/10/08 11:26:04;;;;;;;4.40;3.50;;;;;;;22.83;37.62;101661.81;5045193;28;20392;-64
2022/10/08 11:29:08;;;;;;;6.88;4.18;;;;;;;22.85;37.54;101660.56;5065574;28;20402;-64
2022/10/08 11:31:47;;;;;;;8.75;3.80;;;;;;;23.04;37.72;101660.50;5064307;28;20384;-64
2022/10/08 11:34:35;;;;;;;4.93;3.38;;;;;;;23.01;37.31;101661.78;5068116;28;20905;-65
2022/10/08 11:37:05;;;;;;;6.30;3.50;;;;;;;23.08;37.39;101653.59;5064228;28;20922;-65
2022/10/08 11:39:57;;;;;;;5.00;3.60;;;;;;;23.14;37.50;101644.56;5066297;28;20433;-64
2022/10/08 11:43:29;;;;;;;6.28;3.47;;;;;;;23.18;37.41;101634.13;5053363;28;20405;-66
2022/10/08 11:46:21;;;;;;;6.25;3.30;;;;;;;23.17;37.32;101630.56;5045542;28;20891;-64
2022/10/08 11:48:48;;;;;;;5.15;3.30;;;;;;;23.11;37.22;101636.09;5049474;28;20406;-64
2022/10/08 11:51:20;;;;;;;4.22;2.92;;;;;;;23.08;36.62;101626.53;5048253;28;20385;-63
2022/10/08 11:54:24;;;;;;;6.38;3.03;;;;;;;23.13;36.40;101629.38;5049144;28;20890;-65
2022/10/08 12:00:24;;;;;;;4.03;3.05;;;;;;;23.32;36.68;101613.06;5046995;28;20922;-64
2022/10/08 12:02:54;;;;;;;5.50;3.17;;;;;;;23.34;36.79;101611.78;5063143;28;20868;-62
2022/10/08 12:05:23;;;;;;;12.25;3.65;;;;;;;23.37;36.60;101608.63;5045103;28;20945;-67
2022/10/08 12:07:54;;;;;;;14.25;3.28;;;;;;;23.35;35.85;101599.06;5051939;28;20388;-69
2022/10/08 12:10:30;;;;;;;3.75;3.00;;;;;;;23.39;35.34;101598.38;5060305;28;20457;-69
2022/10/08 12:12:59;;;;;;;5.13;2.80;;;;;;;23.41;35.39;101593.56;5058887;28;20388;-69
2022/10/08 12:15:26;;;;;;;5.00;2.90;;;;;;;23.24;35.37;101592.59;5066236;28;20398;-68
2022/10/08 12:17:55;;;;;;;8.52;3.17;;;;;;;23.32;35.28;101583.31;5067191;28;20441;-68
2022/10/08 12:20:33;;;;;;;7.47;3.08;;;;;;;23.44;35.30;101581.44;5055732;28;20389;-68
2022/10/08 12:23:45;;;;;;;3.63;2.90;;;;;;;23.45;35.36;101577.69;5079253;27;20476;-71
2022/10/08 12:26:12;;;;;;;4.75;2.65;;;;;;;23.45;35.18;101578.50;5065678;28;20817;-67
2022/10/08 12:28:41;;;;;;;6.38;2.90;;;;;;;23.52;35.20;101566.75;5065705;28;20410;-65
2022/10/08 12:31:17;;;;;;;6.82;3.10;;;;;;;23.56;35.34;101571.44;5064094;28;20935;-76
2022/10/08 12:34:11;;;;;;;5.18;2.50;;;;;;;23.66;35.00;101565.44;5065493;28;20454;-75
2022/10/08 12:36:51;;;;;;;7.00;2.83;;;;;;;23.66;34.20;101563.56;5062040;28;20400;-70
2022/10/08 12:39:26;;;;;;;7.28;2.97;;;;;;;23.72;34.30;101558.25;5061135;28;20396;-72
2022/10/08 12:42:21;;;;;;;4.93;2.90;;;;;;;23.77;34.49;101561.91;5062376;28;20481;-73